createdAt,value
2022-11-15T00:03:45.638Z,82.40
2022-11-15T00:09:26.389Z,82.20
2022-11-15T00:15:07.627Z,82.06
2022-11-15T00:20:47.811Z,82.39
2022-11-15T00:26:28.389Z,81.90
2022-11-15T00:32:09.200Z,81.63
2022-11-15T00:37:49.728Z,82.14
2022-11-15T00:43:30.486Z,81.60
2022-11-15T00:49:10.916Z,81.85
2022-11-15T00:54:51.079Z,81.86
2022-11-15T01:00:31.536Z,80.87
2022-11-15T01:06:12.946Z,80.96
2022-11-15T01:11:53.314Z,80.89
2022-11-15T01:17:33.938Z,81.24
2022-11-15T01:23:14.721Z,81.33
2022-11-15T01:28:55.279Z,81.30
2022-11-15T01:34:35.769Z,81.54
2022-11-15T01:40:16.303Z,81.50
2022-11-15T01:46:15.975Z,81.59
2022-11-15T01:51:56.649Z,81.22
2022-11-15T01:57:37.529Z,81.16
2022-11-15T02:03:18.335Z,80.98
2022-11-15T02:09:00.160Z,81.10
2022-11-15T02:14:42.768Z,81.64
2022-11-15T02:20:45.406Z,80.82
2022-11-15T02:26:42.518Z,80.90
2022-11-15T02:32:49.924Z,81.15
2022-11-15T02:38:48.550Z,81.09
2022-11-15T02:44:47.265Z,80.92
2022-11-15T02:50:30.948Z,80.58
2022-11-15T02:56:13.288Z,80.72
2022-11-15T03:02:29.898Z,80.80
2022-11-15T03:08:16.810Z,81.00
2022-11-15T03:14:16.692Z,81.07
2022-11-15T03:20:00.119Z,80.74
2022-11-15T03:25:47.404Z,80.70
2022-11-15T03:31:51.820Z,80.46
2022-11-15T03:37:55.832Z,80.42
2022-11-15T03:43:57.508Z,80.62
2022-11-15T03:49:43.595Z,81.11
2022-11-15T03:55:24.372Z,81.28
2022-11-15T04:01:04.972Z,81.57
2022-11-15T04:06:45.835Z,81.65
2022-11-15T04:12:32.063Z,81.88
2022-11-15T04:18:12.691Z,81.87
2022-11-15T04:23:52.869Z,81.63
2022-11-15T04:29:36.115Z,81.56
2022-11-15T04:35:16.808Z,81.27
2022-11-15T04:40:57.084Z,80.98
2022-11-15T04:46:37.521Z,80.82
2022-11-15T04:52:17.854Z,80.51
2022-11-15T04:58:00.765Z,80.38
2022-11-15T05:04:01.030Z,80.39
2022-11-15T05:09:41.629Z,80.52
2022-11-15T05:15:22.113Z,80.58
2022-11-15T05:21:07.491Z,80.50
2022-11-15T05:26:48.251Z,80.22
2022-11-15T05:32:30.547Z,80.21
2022-11-15T05:38:11.073Z,80.35
2022-11-15T05:43:52.494Z,80.32
2022-11-15T05:49:36.372Z,79.94
2022-11-15T05:55:17.092Z,80.43
2022-11-15T06:00:58.637Z,80.31
2022-11-15T06:06:39.578Z,80.18
2022-11-15T06:12:19.990Z,80.48
2022-11-15T06:18:00.394Z,80.39
2022-11-15T06:23:40.811Z,80.31
2022-11-15T06:29:21.266Z,80.15
2022-11-15T06:35:01.694Z,80.26
2022-11-15T06:40:42.162Z,80.22
2022-11-15T06:46:22.631Z,80.42
2022-11-15T06:52:03.299Z,81.29
2022-11-15T06:57:52.485Z,81.24
2022-11-15T07:03:35.210Z,81.38
2022-11-15T07:09:15.895Z,82.34
2022-11-15T07:14:56.684Z,82.35
2022-11-15T07:20:37.151Z,81.67
2022-11-15T07:26:17.414Z,80.71
2022-11-15T07:32:59.935Z,80.93
2022-11-15T07:39:03.836Z,80.24
2022-11-15T07:44:44.822Z,79.89
2022-11-15T07:50:27.817Z,79.53
2022-11-15T07:56:31.488Z,79.51
2022-11-15T08:02:19.523Z,80.03
2022-11-15T08:08:00.349Z,79.86
2022-11-15T08:14:41.222Z,81.17
2022-11-15T08:21:22.154Z,81.42
2022-11-15T08:28:03.561Z,81.26
2022-11-15T08:34:44.780Z,81.45
2022-11-15T08:41:14.144Z,81.08
2022-11-15T08:47:55.416Z,80.61
2022-11-15T08:54:44.279Z,80.05
2022-11-15T09:00:26.000Z,78.97
2022-11-15T09:06:08.885Z,78.52
2022-11-15T09:11:50.254Z,77.82
2022-11-15T09:17:30.949Z,77.26
2022-11-15T09:23:12.267Z,76.60
2022-11-15T09:28:52.855Z,75.77
2022-11-15T09:34:33.946Z,74.86
2022-11-15T09:40:18.122Z,74.15
2022-11-15T09:46:24.107Z,73.29
2022-11-15T09:52:11.259Z,71.63
2022-11-15T09:57:41.095Z,71.09
2022-11-15T10:03:12.083Z,70.51
2022-11-15T10:08:55.273Z,70.16
2022-11-15T10:15:24.790Z,69.83
2022-11-15T10:21:18.811Z,68.99
2022-11-15T10:26:48.431Z,69.33
2022-11-15T10:32:52.316Z,68.89
2022-11-15T10:39:09.462Z,68.74
2022-11-15T10:45:14.615Z,68.57
2022-11-15T10:51:45.770Z,67.98
2022-11-15T10:57:31.019Z,68.22
2022-11-15T11:02:58.919Z,67.90
2022-11-15T11:09:43.508Z,67.22
2022-11-15T11:16:26.803Z,66.71
2022-11-15T11:22:15.282Z,66.47
2022-11-15T11:27:40.322Z,64.89
2022-11-15T11:33:19.751Z,64.31
2022-11-15T11:39:03.181Z,63.24
2022-11-15T11:44:33.502Z,62.93
2022-11-15T11:50:01.994Z,62.52
2022-11-15T11:55:42.281Z,62.53
2022-11-15T12:01:36.036Z,60.63
2022-11-15T12:07:40.535Z,60.56
2022-11-15T12:14:21.294Z,59.53
2022-11-15T12:20:59.597Z,59.06
2022-11-15T12:27:41.550Z,59.74
2022-11-15T12:34:16.044Z,59.79
2022-11-15T12:40:19.468Z,60.53
2022-11-15T12:45:43.769Z,60.20
2022-11-15T12:51:08.335Z,60.31
2022-11-15T12:56:33.817Z,60.50
2022-11-15T13:01:59.712Z,61.04
2022-11-15T13:07:38.440Z,61.62
2022-11-15T13:13:07.863Z,61.87
2022-11-15T13:18:40.570Z,62.55
2022-11-15T13:24:02.310Z,63.07
2022-11-15T13:29:24.460Z,63.52
2022-11-15T13:34:54.000Z,63.51
2022-11-15T13:40:28.668Z,64.02
2022-11-15T13:46:17.061Z,64.51
2022-11-15T13:51:55.496Z,64.82
2022-11-15T13:57:34.855Z,65.10
2022-11-15T14:03:08.299Z,65.05
2022-11-15T14:09:20.687Z,65.10
2022-11-15T14:16:06.127Z,65.50
2022-11-15T14:22:18.908Z,65.65
2022-11-15T14:28:04.589Z,65.76
2022-11-15T14:33:31.794Z,65.80
2022-11-15T14:38:55.348Z,66.08
2022-11-15T14:44:19.618Z,65.91
2022-11-15T14:49:42.288Z,66.32
2022-11-15T14:56:04.757Z,66.29
2022-11-15T15:02:51.063Z,66.54
2022-11-15T15:08:38.162Z,66.78
2022-11-15T15:15:00.913Z,66.97
2022-11-15T15:21:43.648Z,67.10
2022-11-15T15:28:32.947Z,67.34
2022-11-15T15:35:17.373Z,67.37
2022-11-15T15:42:01.007Z,67.54
2022-11-15T15:47:45.358Z,67.66
2022-11-15T15:53:11.938Z,67.88
2022-11-15T15:59:34.903Z,68.16
2022-11-15T16:06:17.570Z,68.32
2022-11-15T16:12:43.929Z,68.48
2022-11-15T16:18:26.340Z,68.72
2022-11-15T16:24:28.723Z,68.97
2022-11-15T16:31:11.810Z,69.20
2022-11-15T16:38:02.703Z,69.31
2022-11-15T16:44:46.700Z,69.65
2022-11-15T16:51:29.691Z,70.04
2022-11-15T16:58:12.057Z,70.35
2022-11-15T17:04:37.964Z,70.64
2022-11-15T17:11:04.129Z,70.77
2022-11-15T17:16:26.486Z,70.76
2022-11-15T17:21:51.782Z,71.17
2022-11-15T17:27:13.815Z,71.25
2022-11-15T17:32:39.225Z,71.41
2022-11-15T17:38:01.022Z,72.04
2022-11-15T17:43:22.532Z,72.21
2022-11-15T17:48:45.045Z,72.53
2022-11-15T17:54:13.737Z,72.43
2022-11-15T17:59:40.968Z,72.43
2022-11-15T18:05:03.404Z,72.62
2022-11-15T18:10:25.330Z,72.62
2022-11-15T18:15:55.223Z,72.42
2022-11-15T18:21:20.303Z,72.43
2022-11-15T18:26:42.172Z,72.60
2022-11-15T18:32:11.721Z,72.67
2022-11-15T18:37:33.511Z,72.98
2022-11-15T18:42:55.256Z,72.87
2022-11-15T18:48:17.303Z,73.04
2022-11-15T18:53:40.781Z,72.93
2022-11-15T18:59:04.258Z,72.87
2022-11-15T19:04:25.947Z,72.94
2022-11-15T19:09:48.458Z,73.09
2022-11-15T19:15:10.898Z,73.17
2022-11-15T19:20:32.507Z,73.36
2022-11-15T19:25:59.373Z,73.29
2022-11-15T19:31:23.777Z,73.63
2022-11-15T19:36:46.679Z,73.68
2022-11-15T19:42:41.385Z,73.37
2022-11-15T19:48:23.755Z,73.39
2022-11-15T19:53:45.799Z,73.37
2022-11-15T19:59:08.234Z,73.48
2022-11-15T20:04:29.790Z,73.17
2022-11-15T20:09:52.452Z,73.15
2022-11-15T20:15:14.568Z,73.29
2022-11-15T20:20:36.763Z,73.43
2022-11-15T20:25:58.651Z,73.28
2022-11-15T20:31:21.918Z,73.22
2022-11-15T20:36:43.996Z,73.36
2022-11-15T20:42:47.777Z,73.33
2022-11-15T20:48:30.715Z,73.35
2022-11-15T20:53:53.362Z,73.21
2022-11-15T21:00:17.553Z,73.09
2022-11-15T21:06:09.863Z,73.06
2022-11-15T21:12:35.670Z,72.94
2022-11-15T21:18:41.680Z,72.79
2022-11-15T21:24:26.339Z,72.93
2022-11-15T21:30:30.926Z,73.02
2022-11-15T21:36:12.962Z,72.80
2022-11-15T21:41:35.224Z,72.75
2022-11-15T21:46:57.182Z,72.85
2022-11-15T21:52:19.298Z,72.63
2022-11-15T21:57:41.496Z,72.87
2022-11-15T22:03:03.247Z,72.72
2022-11-15T22:08:25.712Z,72.93
2022-11-15T22:13:47.901Z,72.77
2022-11-15T22:19:10.189Z,73.01
2022-11-15T22:24:32.144Z,73.03
2022-11-15T22:29:53.678Z,73.07
2022-11-15T22:35:16.297Z,73.25
2022-11-15T22:40:38.669Z,73.14
2022-11-15T22:46:02.343Z,73.20
2022-11-15T22:51:24.275Z,73.17
2022-11-15T22:56:46.741Z,73.06
2022-11-15T23:02:11.690Z,73.19
2022-11-15T23:07:37.414Z,73.14
2022-11-15T23:13:17.417Z,73.04
2022-11-15T23:18:43.599Z,73.05
2022-11-15T23:24:06.123Z,72.95
2022-11-15T23:29:29.111Z,72.86
2022-11-15T23:35:51.909Z,73.05
2022-11-15T23:41:57.983Z,73.13
2022-11-15T23:47:47.898Z,73.06
2022-11-15T23:53:09.868Z,73.52
2022-11-15T23:58:33.054Z,73.77
